createdAt,value
2019-03-05T00:00:53.057Z,6.99
2019-03-05T00:01:53.019Z,7.06
2019-03-05T00:02:53.009Z,7.05
2019-03-05T00:03:53.008Z,7.03
2019-03-05T00:04:52.986Z,7.02
2019-03-05T00:05:52.990Z,6.98
2019-03-05T00:06:52.962Z,6.97
2019-03-05T00:07:52.977Z,6.99
2019-03-05T00:08:52.941Z,6.98
2019-03-05T00:09:52.939Z,7.03
2019-03-05T00:10:52.944Z,7.06
2019-03-05T00:11:52.904Z,7.06
2019-03-05T00:12:52.898Z,7.13
2019-03-05T00:13:52.884Z,7.10
2019-03-05T00:14:52.879Z,7.12
2019-03-05T00:15:52.897Z,7.09
2019-03-05T00:16:52.853Z,7.05
2019-03-05T00:17:52.846Z,6.99
2019-03-05T00:18:52.829Z,7.03
2019-03-05T00:19:52.820Z,6.98
2019-03-05T00:20:52.816Z,6.99
2019-03-05T00:21:52.817Z,7.03
2019-03-05T00:22:52.809Z,7.10
2019-03-05T00:23:52.775Z,7.12
2019-03-05T00:24:52.761Z,7.05
2019-03-05T00:25:52.750Z,7.13
2019-03-05T00:26:52.755Z,7.05
2019-03-05T00:27:52.725Z,7.03
2019-03-05T00:28:52.717Z,7.09
2019-03-05T00:29:52.709Z,7.10
2019-03-05T00:30:52.704Z,7.07
2019-03-05T00:31:52.709Z,7.09
2019-03-05T00:32:52.675Z,7.17
2019-03-05T00:33:52.663Z,7.30
2019-03-05T00:34:52.662Z,7.31
2019-03-05T00:35:52.637Z,7.31
2019-03-05T00:36:52.651Z,7.31
2019-03-05T00:37:52.619Z,7.31
2019-03-05T00:38:52.615Z,7.37
2019-03-05T00:39:52.597Z,7.42
2019-03-05T00:40:52.584Z,7.34
2019-03-05T00:41:52.606Z,7.35
2019-03-05T00:42:52.573Z,7.30
2019-03-05T00:43:52.555Z,7.32
2019-03-05T00:44:52.552Z,7.45
2019-03-05T00:45:52.526Z,7.31
2019-03-05T00:46:52.518Z,7.45
2019-03-05T00:47:52.530Z,7.58
2019-03-05T00:48:52.491Z,7.60
2019-03-05T00:49:52.488Z,7.46
2019-03-05T00:50:52.470Z,7.53
2019-03-05T00:51:52.468Z,7.53
2019-03-05T00:52:52.467Z,7.50
2019-03-05T00:53:52.453Z,7.63
2019-03-05T00:54:52.429Z,7.63
2019-03-05T00:55:52.433Z,7.64
2019-03-05T00:56:52.405Z,7.60
2019-03-05T00:57:52.413Z,7.53
2019-03-05T00:58:52.397Z,7.50
2019-03-05T00:59:52.374Z,7.53
2019-03-05T01:00:52.430Z,7.48
2019-03-05T01:01:52.361Z,7.53
2019-03-05T01:02:52.339Z,7.57
2019-03-05T01:03:52.357Z,7.53
2019-03-05T01:04:52.315Z,7.57
2019-03-05T01:05:52.300Z,7.52
2019-03-05T01:06:52.299Z,7.58
2019-03-05T01:07:52.277Z,7.49
2019-03-05T01:08:52.311Z,7.49
2019-03-05T01:09:52.258Z,7.55
2019-03-05T01:10:52.254Z,7.48
2019-03-05T01:11:52.237Z,7.58
2019-03-05T01:12:52.225Z,7.53
2019-03-05T01:13:52.233Z,7.55
2019-03-05T01:14:52.198Z,7.39
2019-03-05T01:15:52.191Z,7.55
2019-03-05T01:16:52.189Z,7.57
2019-03-05T01:17:52.171Z,7.55
2019-03-05T01:18:52.176Z,7.49
2019-03-05T01:19:52.146Z,7.37
2019-03-05T01:20:52.137Z,7.49
2019-03-05T01:21:52.124Z,7.57
2019-03-05T01:22:52.109Z,7.50
2019-03-05T01:23:52.127Z,7.57
2019-03-05T01:24:52.099Z,7.53
2019-03-05T01:25:52.079Z,7.57
2019-03-05T01:26:52.064Z,7.48
2019-03-05T01:27:52.055Z,7.49
2019-03-05T01:28:52.072Z,7.46
2019-03-05T01:29:52.049Z,7.43
2019-03-05T01:30:52.023Z,7.42
2019-03-05T01:31:52.016Z,7.32
2019-03-05T01:32:51.999Z,7.31
2019-03-05T01:33:51.992Z,7.21
2019-03-05T01:34:52.008Z,7.07
2019-03-05T01:35:51.995Z,7.17
2019-03-05T01:36:51.960Z,7.10
2019-03-05T01:37:51.947Z,7.12
2019-03-05T01:38:51.930Z,7.21
2019-03-05T01:39:51.940Z,7.21
2019-03-05T01:40:51.913Z,7.17
2019-03-05T01:41:51.903Z,7.15
2019-03-05T01:42:51.887Z,7.13
2019-03-05T01:43:51.879Z,6.99
2019-03-05T01:44:51.900Z,6.98
2019-03-05T01:45:51.855Z,7.07
2019-03-05T01:46:51.848Z,6.89
2019-03-05T01:47:51.843Z,6.91
2019-03-05T01:48:51.825Z,6.94
2019-03-05T01:49:51.841Z,6.84
2019-03-05T01:50:51.802Z,6.84
2019-03-05T01:51:51.790Z,6.85
2019-03-05T01:52:51.785Z,6.88
2019-03-05T01:53:51.783Z,6.85
2019-03-05T01:54:51.755Z,6.92
2019-03-05T01:55:51.756Z,6.81
2019-03-05T01:56:51.734Z,6.71
2019-03-05T01:57:51.720Z,6.74
2019-03-05T01:58:51.714Z,6.70
2019-03-05T01:59:51.699Z,6.74
2019-03-05T02:00:51.714Z,6.62
2019-03-05T02:01:51.677Z,6.67
2019-03-05T02:02:51.668Z,6.67
2019-03-05T02:03:51.654Z,6.64
2019-03-05T02:04:51.656Z,6.61
2019-03-05T02:05:51.654Z,6.59
2019-03-05T02:06:51.619Z,6.56
2019-03-05T02:07:51.608Z,6.55
2019-03-05T02:08:51.600Z,6.55
2019-03-05T02:09:51.591Z,6.56
2019-03-05T02:10:51.596Z,6.56
2019-03-05T02:11:51.566Z,6.55
2019-03-05T02:12:51.553Z,6.49
2019-03-05T02:13:51.543Z,6.44
2019-03-05T02:14:51.530Z,6.44
2019-03-05T02:15:51.552Z,6.51
2019-03-05T02:16:51.508Z,6.46
2019-03-05T02:17:51.493Z,6.43
2019-03-05T02:18:51.486Z,6.43
2019-03-05T02:19:51.479Z,6.38
2019-03-05T02:20:51.464Z,6.37
2019-03-05T02:21:51.467Z,6.36
2019-03-05T02:22:51.442Z,6.37
2019-03-05T02:23:51.429Z,6.34
2019-03-05T02:24:51.423Z,6.25
2019-03-05T02:25:51.414Z,6.25
2019-03-05T02:26:51.420Z,6.25
2019-03-05T02:27:51.392Z,6.19
2019-03-05T02:28:51.375Z,6.22
2019-03-05T02:29:51.365Z,6.25
2019-03-05T02:30:51.360Z,6.21
2019-03-05T02:31:51.367Z,6.34
2019-03-05T02:32:51.339Z,6.31
2019-03-05T02:33:51.316Z,6.38
2019-03-05T02:34:51.308Z,6.31
2019-03-05T02:35:51.302Z,6.31
2019-03-05T02:36:51.319Z,6.40
2019-03-05T02:37:51.277Z,6.37
2019-03-05T02:38:51.273Z,6.30
2019-03-05T02:39:51.251Z,6.28
2019-03-05T02:40:51.246Z,6.37
2019-03-05T02:41:51.259Z,6.37
2019-03-05T02:42:51.219Z,6.28
2019-03-05T02:43:51.211Z,6.27
2019-03-05T02:44:51.202Z,6.27
2019-03-05T02:45:51.180Z,6.15
2019-03-05T02:46:51.172Z,6.19
2019-03-05T02:47:51.279Z,6.14
2019-03-05T02:48:51.154Z,6.12
2019-03-05T02:49:51.149Z,6.09
2019-03-05T02:50:51.147Z,6.06
2019-03-05T02:51:51.121Z,6.04
2019-03-05T02:52:51.123Z,6.06
2019-03-05T02:53:51.092Z,5.97
2019-03-05T02:54:51.090Z,5.99
2019-03-05T02:55:51.086Z,5.93
2019-03-05T02:56:51.072Z,5.90
2019-03-05T02:57:51.081Z,5.99
2019-03-05T02:58:51.041Z,5.94
2019-03-05T02:59:51.030Z,6.09
2019-03-05T03:00:51.022Z,6.11
2019-03-05T03:01:51.008Z,6.11
2019-03-05T03:02:51.023Z,6.11
2019-03-05T03:03:50.998Z,6.09
2019-03-05T03:04:50.977Z,6.12
2019-03-05T03:05:50.963Z,6.12
2019-03-05T03:06:50.950Z,6.15
2019-03-05T03:07:50.968Z,6.14
2019-03-05T03:08:50.930Z,6.14
2019-03-05T03:09:50.916Z,6.01
2019-03-05T03:10:50.905Z,6.12
2019-03-05T03:11:50.905Z,6.19
2019-03-05T03:12:50.888Z,6.30
2019-03-05T03:13:50.907Z,6.31
2019-03-05T03:14:50.862Z,6.31
2019-03-05T03:15:50.850Z,6.27
2019-03-05T03:16:50.839Z,6.41
2019-03-05T03:17:50.832Z,6.36
2019-03-05T03:18:50.830Z,6.43
2019-03-05T03:19:50.813Z,6.37
2019-03-05T03:20:50.795Z,6.31
2019-03-05T03:21:50.783Z,6.40
2019-03-05T03:22:50.784Z,6.41
2019-03-05T03:23:50.785Z,6.48
2019-03-05T03:24:50.752Z,6.51
2019-03-05T03:25:50.744Z,6.56
2019-03-05T03:26:50.725Z,6.52
2019-03-05T03:27:50.748Z,6.56
2019-03-05T03:28:50.734Z,6.55
2019-03-05T03:29:50.694Z,6.54
2019-03-05T03:30:50.696Z,6.70
2019-03-05T03:31:50.668Z,6.62
2019-03-05T03:32:50.829Z,6.54
2019-03-05T03:33:50.668Z,6.52
2019-03-05T03:34:50.648Z,6.59
2019-03-05T03:35:50.638Z,6.55
2019-03-05T03:36:50.622Z,6.61
2019-03-05T03:37:50.608Z,6.59
2019-03-05T03:38:50.612Z,6.58
2019-03-05T03:39:50.582Z,6.62
2019-03-05T03:40:50.572Z,6.64
2019-03-05T03:41:50.570Z,6.66
2019-03-05T03:42:50.555Z,6.71
2019-03-05T03:43:50.662Z,6.70
2019-03-05T03:44:50.533Z,6.73
2019-03-05T03:45:50.525Z,6.71
2019-03-05T03:46:50.503Z,6.70
2019-03-05T03:47:50.497Z,6.77
2019-03-05T03:48:50.481Z,6.73
2019-03-05T03:49:50.486Z,6.73
2019-03-05T03:50:50.458Z,6.70
2019-03-05T03:51:51.531Z,6.79
2019-03-05T03:52:50.444Z,6.89
2019-03-05T03:53:50.428Z,6.88
2019-03-05T03:54:50.455Z,6.95
2019-03-05T03:55:50.408Z,6.85
2019-03-05T03:56:50.396Z,7.05
2019-03-05T03:57:50.391Z,7.05
2019-03-05T03:58:50.375Z,7.02
2019-03-05T03:59:50.380Z,7.05
2019-03-05T04:00:50.349Z,7.02
2019-03-05T04:01:50.346Z,6.95
2019-03-05T04:02:50.331Z,7.02
2019-03-05T04:03:50.310Z,7.12
2019-03-05T04:04:50.345Z,7.05
2019-03-05T04:05:50.305Z,7.02
2019-03-05T04:06:50.282Z,7.03
2019-03-05T04:07:50.277Z,7.05
2019-03-05T04:08:50.254Z,7.05
2019-03-05T04:09:50.244Z,7.05
2019-03-05T04:10:50.254Z,6.99
2019-03-05T04:11:50.230Z,7.06
2019-03-05T04:12:50.215Z,7.09
2019-03-05T04:13:50.198Z,7.09
2019-03-05T04:14:50.197Z,7.17
2019-03-05T04:15:50.200Z,7.12
2019-03-05T04:16:50.167Z,7.21
2019-03-05T04:17:50.158Z,7.21
2019-03-05T04:18:50.145Z,7.17
2019-03-05T04:19:50.139Z,7.23
2019-03-05T04:20:50.143Z,7.17
2019-03-05T04:21:50.115Z,7.24
2019-03-05T04:22:50.119Z,7.21
2019-03-05T04:23:50.086Z,7.31
2019-03-05T04:24:50.076Z,7.27
2019-03-05T04:25:50.089Z,7.30
2019-03-05T04:26:50.055Z,7.30
2019-03-05T04:27:50.051Z,7.25
2019-03-05T04:28:50.047Z,7.28
2019-03-05T04:29:50.032Z,7.30
2019-03-05T04:30:50.031Z,7.35
2019-03-05T04:31:50.007Z,7.34
2019-03-05T04:32:49.992Z,7.32
2019-03-05T04:33:49.981Z,7.27
2019-03-05T04:34:49.961Z,7.35
2019-03-05T04:35:49.968Z,7.32
2019-03-05T04:36:49.947Z,7.28
2019-03-05T04:37:49.946Z,7.30
2019-03-05T04:38:49.920Z,7.34
2019-03-05T04:39:49.920Z,7.32
2019-03-05T04:40:49.899Z,7.35
2019-03-05T04:41:49.972Z,7.30
2019-03-05T04:42:49.875Z,7.25
2019-03-05T04:43:49.869Z,7.17
2019-03-05T04:44:49.852Z,7.30
2019-03-05T04:45:49.852Z,7.25
2019-03-05T04:46:49.858Z,7.23
2019-03-05T04:47:49.824Z,7.21
2019-03-05T04:48:49.820Z,7.31
2019-03-05T04:49:49.799Z,7.25
2019-03-05T04:50:49.799Z,7.27
2019-03-05T04:51:49.901Z,7.27
2019-03-05T04:52:49.766Z,7.30
2019-03-05T04:53:49.758Z,7.31
2019-03-05T04:54:49.748Z,7.31
2019-03-05T04:55:49.734Z,7.35
2019-03-05T04:56:49.738Z,7.28
2019-03-05T04:57:49.709Z,7.17
2019-03-05T04:58:49.698Z,7.27
2019-03-05T04:59:49.687Z,7.27
2019-03-05T05:00:49.677Z,7.28
2019-03-05T05:01:49.689Z,7.37
2019-03-05T05:02:49.654Z,7.31
2019-03-05T05:03:49.647Z,7.31
2019-03-05T05:04:49.632Z,7.34
2019-03-05T05:05:49.624Z,7.31
2019-03-05T05:06:49.634Z,7.32
2019-03-05T05:07:49.597Z,7.31
2019-03-05T05:08:49.591Z,7.32
2019-03-05T05:09:49.575Z,7.32
2019-03-05T05:10:49.563Z,7.30
2019-03-05T05:11:49.550Z,7.31
2019-03-05T05:12:49.568Z,7.32
2019-03-05T05:13:49.543Z,7.27
2019-03-05T05:14:49.521Z,7.28
2019-03-05T05:15:49.504Z,7.30
2019-03-05T05:16:49.495Z,7.28
2019-03-05T05:17:49.499Z,7.28
2019-03-05T05:18:49.472Z,7.28
2019-03-05T05:19:49.461Z,7.28
2019-03-05T05:20:49.451Z,7.25
2019-03-05T05:21:49.434Z,7.28
2019-03-05T05:22:49.442Z,7.31
2019-03-05T05:23:49.428Z,7.34
2019-03-05T05:24:49.406Z,7.31
2019-03-05T05:25:49.398Z,7.32
2019-03-05T05:26:49.378Z,7.35
2019-03-05T05:27:49.381Z,7.32
2019-03-05T05:28:49.366Z,7.30
2019-03-05T05:29:49.348Z,7.27
2019-03-05T05:30:49.341Z,7.28
2019-03-05T05:31:49.325Z,7.25
2019-03-05T05:32:49.346Z,7.27
2019-03-05T05:33:49.303Z,7.32
2019-03-05T05:34:49.292Z,7.28
2019-03-05T05:35:49.276Z,7.35
2019-03-05T05:36:49.268Z,7.34
2019-03-05T05:37:49.277Z,7.35
2019-03-05T05:38:49.242Z,7.32
2019-03-05T05:39:49.234Z,7.32
2019-03-05T05:40:49.228Z,7.20
2019-03-05T05:41:49.223Z,7.17
2019-03-05T05:42:49.219Z,7.30
2019-03-05T05:43:49.191Z,7.34
2019-03-05T05:44:49.180Z,7.30
2019-03-05T05:45:49.174Z,7.30
2019-03-05T05:46:49.157Z,7.30
2019-03-05T05:47:49.162Z,7.31
2019-03-05T05:48:49.139Z,7.30
2019-03-05T05:49:49.124Z,7.31
2019-03-05T05:50:49.111Z,7.27
2019-03-05T05:51:49.098Z,7.24
2019-03-05T05:52:49.134Z,7.32
2019-03-05T05:53:49.087Z,7.21
2019-03-05T05:54:49.070Z,7.23
2019-03-05T05:55:49.069Z,7.20
2019-03-05T05:56:49.044Z,7.28
2019-03-05T05:57:49.035Z,7.27
2019-03-05T05:58:49.041Z,7.27
2019-03-05T05:59:49.014Z,7.23
2019-03-05T06:00:49.000Z,7.27
2019-03-05T06:01:48.986Z,7.31
2019-03-05T06:02:48.974Z,7.30
2019-03-05T06:03:48.984Z,7.30
2019-03-05T06:04:48.953Z,7.34
2019-03-05T06:05:48.951Z,7.45
2019-03-05T06:06:48.937Z,7.32
2019-03-05T06:07:48.920Z,7.34
2019-03-05T06:08:48.939Z,7.32
2019-03-05T06:09:48.897Z,7.37
2019-03-05T06:10:48.894Z,7.31
2019-03-05T06:11:48.884Z,7.31
2019-03-05T06:12:48.880Z,7.34
2019-03-05T06:13:48.876Z,7.42
2019-03-05T06:14:48.836Z,7.43
2019-03-05T06:15:48.828Z,7.45
2019-03-05T06:16:48.827Z,7.35
2019-03-05T06:17:48.802Z,7.35
2019-03-05T06:18:48.830Z,7.39
2019-03-05T06:19:48.792Z,7.40
2019-03-05T06:20:48.779Z,7.32
2019-03-05T06:21:48.765Z,7.37
2019-03-05T06:22:48.756Z,7.45
2019-03-05T06:23:48.776Z,7.40
2019-03-05T06:24:48.730Z,7.42
2019-03-05T06:25:48.730Z,7.40
2019-03-05T06:26:48.718Z,7.37
2019-03-05T06:27:48.693Z,7.31
2019-03-05T06:28:48.699Z,7.43
2019-03-05T06:29:48.672Z,7.43
2019-03-05T06:30:48.664Z,7.49
2019-03-05T06:31:48.652Z,7.43
2019-03-05T06:32:48.638Z,7.43
2019-03-05T06:33:48.659Z,7.45
2019-03-05T06:34:48.612Z,7.43
2019-03-05T06:35:48.615Z,7.48
2019-03-05T06:36:48.596Z,7.48
2019-03-05T06:37:48.584Z,7.53
2019-03-05T06:38:48.593Z,7.48
2019-03-05T06:39:48.568Z,7.49
2019-03-05T06:40:48.562Z,7.46
2019-03-05T06:41:48.536Z,7.45
2019-03-05T06:42:48.532Z,7.42
2019-03-05T06:43:48.544Z,7.43
2019-03-05T06:44:48.504Z,7.32
2019-03-05T06:45:48.502Z,7.32
2019-03-05T06:46:48.484Z,7.39
2019-03-05T06:47:48.472Z,7.34
2019-03-05T06:48:48.459Z,7.42
2019-03-05T06:49:48.468Z,7.43
2019-03-05T06:50:48.442Z,7.42
2019-03-05T06:51:48.433Z,7.50
2019-03-05T06:52:48.412Z,7.42
2019-03-05T06:53:48.412Z,7.37
2019-03-05T06:54:48.414Z,7.50
2019-03-05T06:55:48.383Z,7.49
2019-03-05T06:56:48.401Z,7.49
2019-03-05T06:57:48.433Z,7.49
2019-03-05T06:58:48.342Z,7.53
2019-03-05T06:59:48.363Z,7.50
2019-03-05T07:00:48.330Z,7.49
2019-03-05T07:01:48.318Z,7.53
2019-03-05T07:02:48.302Z,7.58
2019-03-05T07:03:48.426Z,7.61
2019-03-05T07:04:48.452Z,7.45
2019-03-05T07:05:48.266Z,7.52
2019-03-05T07:06:48.266Z,7.67
2019-03-05T07:07:48.254Z,7.64
2019-03-05T07:08:48.244Z,7.58
2019-03-05T07:09:48.262Z,7.60
2019-03-05T07:10:48.210Z,7.63
2019-03-05T07:11:48.205Z,7.50
2019-03-05T07:12:48.196Z,7.60
2019-03-05T07:13:48.191Z,7.69
2019-03-05T07:14:48.190Z,7.49
2019-03-05T07:15:48.154Z,7.63
2019-03-05T07:16:48.147Z,7.55
2019-03-05T07:17:48.152Z,7.60
2019-03-05T07:18:48.122Z,7.53
2019-03-05T07:19:57.527Z,7.63
2019-03-05T07:20:49.100Z,7.68
2019-03-05T07:21:48.091Z,7.57
2019-03-05T07:22:48.100Z,7.60
2019-03-05T07:23:48.089Z,7.64
2019-03-05T07:24:48.089Z,7.64
2019-03-05T07:25:48.051Z,7.58
2019-03-05T07:26:48.083Z,7.67
2019-03-05T07:27:48.019Z,7.72
2019-03-05T07:28:48.015Z,7.69
2019-03-05T07:29:48.005Z,7.71
2019-03-05T07:30:48.002Z,7.72
2019-03-05T07:31:47.995Z,7.72
2019-03-05T07:32:47.962Z,7.79
2019-03-05T07:33:47.951Z,7.82
2019-03-05T07:34:47.942Z,7.83
2019-03-05T07:35:48.009Z,7.93
2019-03-05T07:36:47.929Z,7.98
2019-03-05T07:37:47.911Z,8.02
2019-03-05T07:38:47.898Z,8.02
2019-03-05T07:39:47.894Z,8.15
2019-03-05T07:40:47.889Z,8.05
2019-03-05T07:41:48.293Z,7.97
2019-03-05T07:42:47.940Z,8.07
2019-03-05T07:43:47.840Z,8.16
2019-03-05T07:44:47.837Z,8.12
2019-03-05T07:45:47.843Z,8.26
2019-03-05T07:46:47.819Z,8.22
2019-03-05T07:47:47.794Z,8.12
2019-03-05T07:48:47.793Z,8.26
2019-03-05T07:49:47.775Z,8.29
2019-03-05T07:50:47.778Z,8.36
2019-03-05T07:51:47.756Z,8.25
2019-03-05T07:52:47.734Z,8.19
2019-03-05T07:53:47.732Z,8.30
2019-03-05T07:54:47.730Z,8.30
2019-03-05T07:55:47.722Z,8.36
2019-03-05T07:56:47.693Z,8.43
2019-03-05T07:57:47.677Z,8.44
2019-03-05T07:58:47.676Z,8.41
2019-03-05T07:59:47.671Z,8.33
2019-03-05T08:00:47.705Z,8.38
2019-03-05T08:01:47.635Z,8.40
2019-03-05T08:02:47.696Z,8.37
2019-03-05T08:03:47.686Z,8.40
2019-03-05T08:04:47.604Z,8.52
2019-03-05T08:05:47.774Z,8.52
2019-03-05T08:06:47.577Z,8.48
2019-03-05T08:07:47.579Z,8.44
2019-03-05T08:08:47.558Z,8.41
2019-03-05T08:09:47.546Z,8.41
2019-03-05T08:10:47.565Z,8.38
2019-03-05T08:11:47.528Z,8.37
2019-03-05T08:12:47.512Z,8.48
2019-03-05T08:13:47.497Z,8.38
2019-03-05T08:14:47.489Z,8.52
2019-03-05T08:15:47.511Z,8.53
2019-03-05T08:16:47.467Z,8.55
2019-03-05T08:17:47.456Z,8.56
2019-03-05T08:18:47.451Z,8.48
2019-03-05T08:19:47.436Z,8.50
2019-03-05T08:20:47.428Z,8.56
2019-03-05T08:21:47.430Z,8.58
2019-03-05T08:22:47.408Z,8.53
2019-03-05T08:23:48.495Z,8.48
2019-03-05T08:24:47.381Z,8.40
2019-03-05T08:25:47.364Z,8.44
2019-03-05T08:26:47.377Z,8.52
2019-03-05T08:27:47.347Z,8.44
2019-03-05T08:28:47.337Z,8.43
2019-03-05T08:29:47.330Z,8.48
2019-03-05T08:30:47.313Z,8.47
2019-03-05T08:31:47.315Z,8.40
2019-03-05T08:32:47.287Z,8.36
2019-03-05T08:33:47.280Z,8.40
2019-03-05T08:34:47.290Z,8.50
2019-03-05T08:35:47.256Z,8.50
2019-03-05T08:36:47.272Z,8.53
2019-03-05T08:37:47.226Z,8.52
2019-03-05T08:38:47.222Z,8.47
2019-03-05T08:39:47.208Z,8.47
2019-03-05T08:40:47.199Z,8.36
2019-03-05T08:41:47.204Z,8.52
2019-03-05T08:42:47.171Z,8.36
2019-03-05T08:43:47.160Z,8.34
2019-03-05T08:44:50.716Z,8.36
2019-03-05T08:45:47.144Z,8.34
2019-03-05T08:46:47.154Z,8.40
2019-03-05T08:47:47.116Z,8.40
2019-03-05T08:48:47.112Z,8.55
2019-03-05T08:49:47.099Z,8.58
2019-03-05T08:50:47.085Z,8.58
2019-03-05T08:51:47.092Z,8.59
2019-03-05T08:52:47.080Z,8.53
2019-03-05T08:53:49.721Z,8.62
2019-03-05T08:54:47.035Z,8.68
2019-03-05T08:55:47.027Z,8.83
2019-03-05T08:56:47.023Z,8.89
2019-03-05T08:57:47.140Z,8.80
2019-03-05T08:58:47.029Z,8.81
2019-03-05T08:59:46.981Z,8.83
2019-03-05T09:00:48.202Z,8.81
2019-03-05T09:01:46.986Z,8.79
2019-03-05T09:02:49.071Z,8.83
2019-03-05T09:03:46.950Z,8.84
2019-03-05T09:04:46.928Z,8.79
2019-03-05T09:05:46.915Z,8.80
2019-03-05T09:06:46.912Z,8.70
2019-03-05T09:07:46.915Z,8.65
2019-03-05T09:08:46.889Z,8.70
2019-03-05T09:09:46.876Z,8.61
2019-03-05T09:10:46.861Z,8.68
2019-03-05T09:11:46.848Z,8.62
2019-03-05T09:12:46.857Z,8.68
2019-03-05T09:13:46.826Z,8.62
2019-03-05T09:14:46.825Z,8.74
2019-03-05T09:15:46.809Z,8.73
2019-03-05T09:16:46.796Z,8.83
2019-03-05T09:17:46.826Z,8.99
2019-03-05T09:18:46.776Z,9.02
2019-03-05T09:19:46.753Z,9.01
2019-03-05T09:20:46.749Z,9.02
2019-03-05T09:21:49.124Z,9.10
2019-03-05T09:22:46.745Z,9.01
2019-03-05T09:23:46.713Z,8.95
2019-03-05T09:24:46.704Z,9.08
2019-03-05T09:25:46.689Z,9.10
2019-03-05T09:26:51.191Z,8.98
2019-03-05T09:27:47.693Z,9.08
2019-03-05T09:28:46.656Z,8.98
2019-03-05T09:29:46.650Z,9.05
2019-03-05T09:30:46.630Z,9.18
2019-03-05T09:31:46.633Z,9.23
2019-03-05T09:32:46.639Z,9.23
2019-03-05T09:33:46.613Z,9.26
2019-03-05T09:34:46.595Z,9.33
2019-03-05T09:35:46.653Z,9.23
2019-03-05T09:36:50.951Z,9.36
2019-03-05T09:37:46.582Z,9.32
2019-03-05T09:38:46.544Z,9.26
2019-03-05T09:39:46.536Z,9.05
2019-03-05T09:40:46.522Z,8.99
2019-03-05T09:41:46.513Z,8.99
2019-03-05T09:42:46.508Z,9.04
2019-03-05T09:43:46.519Z,9.14
2019-03-05T09:44:46.472Z,9.36
2019-03-05T09:45:46.463Z,9.39
2019-03-05T09:46:46.456Z,9.29
2019-03-05T09:47:46.478Z,9.38
2019-03-05T09:48:46.444Z,9.58
2019-03-05T09:49:46.417Z,9.64
2019-03-05T09:50:46.405Z,9.53
2019-03-05T09:51:46.393Z,9.53
2019-03-05T09:52:54.486Z,9.46
2019-03-05T09:53:47.398Z,9.39
2019-03-05T09:54:46.374Z,9.47
2019-03-05T09:55:46.344Z,9.47
2019-03-05T09:56:46.337Z,9.33
2019-03-05T09:57:46.327Z,9.21
2019-03-05T09:58:46.351Z,9.04
2019-03-05T09:59:46.319Z,8.96
2019-03-05T10:00:46.292Z,8.76
2019-03-05T10:01:46.285Z,8.80
2019-03-05T10:02:46.274Z,8.70
2019-03-05T10:03:46.280Z,8.63
2019-03-05T10:04:46.253Z,8.73
2019-03-05T10:05:46.247Z,8.94
2019-03-05T10:06:46.232Z,8.87
2019-03-05T10:07:46.214Z,8.76
2019-03-05T10:08:46.226Z,8.71
2019-03-05T10:09:46.203Z,8.68
2019-03-05T10:10:46.185Z,8.58
2019-03-05T10:11:46.189Z,8.70
2019-03-05T10:12:46.160Z,8.68
2019-03-05T10:13:46.169Z,8.68
2019-03-05T10:14:46.166Z,8.58
2019-03-05T10:15:46.126Z,8.56
2019-03-05T10:16:46.130Z,8.62
2019-03-05T10:17:46.102Z,8.52
2019-03-05T10:18:46.111Z,8.45
2019-03-05T10:19:46.094Z,8.62
2019-03-05T10:20:46.084Z,8.65
2019-03-05T10:21:46.757Z,8.80
2019-03-05T10:22:46.058Z,8.84
2019-03-05T10:23:46.068Z,8.79
2019-03-05T10:24:46.026Z,8.89
2019-03-05T10:25:46.031Z,8.92
2019-03-05T10:26:46.015Z,9.17
2019-03-05T10:27:45.996Z,9.35
2019-03-05T10:28:46.000Z,9.89
2019-03-05T10:29:45.966Z,10.15
2019-03-05T10:30:46.008Z,9.94
2019-03-05T10:31:45.948Z,9.76
2019-03-05T10:32:45.935Z,9.58
2019-03-05T10:33:45.954Z,9.91
2019-03-05T10:34:45.919Z,10.22
2019-03-05T10:35:45.896Z,10.51
2019-03-05T10:36:45.888Z,10.05
2019-03-05T10:37:45.879Z,9.89
2019-03-05T10:38:56.582Z,9.94
2019-03-05T10:39:45.856Z,9.71
2019-03-05T10:40:45.843Z,9.93
2019-03-05T10:41:45.849Z,10.73
2019-03-05T10:42:45.827Z,11.51
2019-03-05T10:43:45.832Z,11.75
2019-03-05T10:44:45.808Z,12.42
2019-03-05T10:45:45.788Z,12.57
2019-03-05T10:46:45.774Z,13.00
2019-03-05T10:47:45.763Z,12.29
2019-03-05T10:48:45.776Z,13.01
2019-03-05T10:49:45.750Z,13.26
2019-03-05T10:50:45.752Z,12.47
2019-03-05T10:51:45.768Z,12.72
2019-03-05T10:52:45.702Z,11.54
2019-03-05T10:53:45.695Z,11.44
2019-03-05T10:54:45.707Z,11.09
2019-03-05T10:55:45.669Z,11.24
2019-03-05T10:56:45.671Z,11.43
2019-03-05T10:57:45.651Z,11.17
2019-03-05T10:58:45.636Z,11.82
2019-03-05T10:59:45.651Z,12.70
2019-03-05T11:00:45.614Z,12.68
2019-03-05T11:01:45.606Z,12.35
2019-03-05T11:02:45.599Z,12.16
2019-03-05T11:03:45.587Z,11.80
2019-03-05T11:04:46.113Z,11.07
2019-03-05T11:05:45.558Z,10.84
2019-03-05T11:06:45.553Z,10.59
2019-03-05T11:07:45.544Z,11.51
2019-03-05T11:08:45.532Z,12.74
2019-03-05T11:09:45.536Z,12.90
2019-03-05T11:10:45.502Z,13.23
2019-03-05T11:11:45.488Z,13.63
2019-03-05T11:12:45.480Z,14.28
2019-03-05T11:13:45.483Z,13.84
2019-03-05T11:14:45.481Z,12.31
2019-03-05T11:15:45.449Z,11.27
2019-03-05T11:16:45.433Z,10.73
2019-03-05T11:17:45.470Z,10.61
2019-03-05T11:18:45.420Z,10.51
2019-03-05T11:19:45.424Z,10.61
2019-03-05T11:20:45.385Z,10.41
2019-03-05T11:21:45.376Z,10.22
2019-03-05T11:22:45.367Z,10.12
2019-03-05T11:23:45.364Z,9.99
2019-03-05T11:24:45.369Z,9.94
2019-03-05T11:25:45.339Z,9.94
2019-03-05T11:26:45.330Z,9.93
2019-03-05T11:27:45.311Z,9.74
2019-03-05T11:28:45.301Z,9.74
2019-03-05T11:29:45.305Z,9.56
2019-03-05T11:30:45.280Z,9.51
2019-03-05T11:31:45.273Z,9.42
2019-03-05T11:32:45.255Z,9.42
2019-03-05T11:33:45.239Z,9.46
2019-03-05T11:34:45.263Z,9.57
2019-03-05T11:35:45.226Z,9.56
2019-03-05T11:36:45.209Z,9.54
2019-03-05T11:37:45.196Z,9.66
2019-03-05T11:38:45.204Z,9.66
2019-03-05T11:39:45.175Z,9.57
2019-03-05T11:40:45.180Z,9.78
2019-03-05T11:41:45.148Z,9.94
2019-03-05T11:42:45.143Z,10.15
2019-03-05T11:43:45.127Z,10.12
2019-03-05T11:44:58.805Z,10.08
2019-03-05T11:45:46.133Z,9.94
2019-03-05T11:46:45.108Z,9.89
2019-03-05T11:47:45.089Z,9.96
2019-03-05T11:48:45.081Z,9.76
2019-03-05T11:49:45.065Z,9.91
2019-03-05T11:50:45.069Z,9.75
2019-03-05T11:51:45.047Z,9.78
2019-03-05T11:52:45.021Z,9.72
2019-03-05T11:53:45.020Z,9.72
2019-03-05T11:54:45.011Z,9.72
2019-03-05T11:55:45.036Z,9.68
2019-03-05T11:56:44.985Z,9.64
2019-03-05T11:57:44.973Z,9.68
2019-03-05T11:58:44.960Z,9.51
2019-03-05T11:59:44.965Z,9.54
2019-03-05T12:00:44.968Z,9.48
2019-03-05T12:01:44.926Z,9.48
2019-03-05T12:02:44.914Z,9.40
2019-03-05T12:03:44.909Z,9.35
2019-03-05T12:04:44.892Z,9.36
2019-03-05T12:05:44.897Z,9.35
2019-03-05T12:06:44.867Z,9.32
2019-03-05T12:07:46.155Z,9.35
2019-03-05T12:08:44.847Z,9.33
2019-03-05T12:09:44.833Z,9.39
2019-03-05T12:10:44.843Z,9.32
2019-03-05T12:11:44.825Z,9.24
2019-03-05T12:12:44.805Z,9.24
2019-03-05T12:13:44.787Z,9.14
2019-03-05T12:14:44.778Z,9.18
2019-03-05T12:15:44.794Z,9.14
2019-03-05T12:16:44.755Z,9.13
2019-03-05T12:17:44.759Z,9.04
2019-03-05T12:18:44.732Z,9.05
2019-03-05T12:19:44.723Z,8.98
2019-03-05T12:20:44.734Z,8.98
2019-03-05T12:21:44.702Z,8.94
2019-03-05T12:22:44.690Z,8.95
2019-03-05T12:23:47.228Z,8.94
2019-03-05T12:24:44.668Z,8.98
2019-03-05T12:25:44.669Z,8.94
2019-03-05T12:26:44.639Z,9.04
2019-03-05T12:27:44.637Z,8.96
2019-03-05T12:28:44.630Z,8.96
2019-03-05T12:29:44.659Z,8.84
2019-03-05T12:30:44.624Z,8.94
2019-03-05T12:31:44.584Z,8.87
2019-03-05T12:32:44.578Z,8.79
2019-03-05T12:33:44.570Z,8.87
2019-03-05T12:34:44.555Z,8.95
2019-03-05T12:35:44.572Z,9.13
2019-03-05T12:36:44.530Z,10.53
2019-03-05T12:37:44.523Z,11.00
2019-03-05T12:38:46.307Z,10.42
2019-03-05T12:39:44.497Z,10.08
2019-03-05T12:40:44.485Z,10.14
2019-03-05T12:41:44.501Z,9.75
2019-03-05T12:42:44.457Z,9.47
2019-03-05T12:43:44.459Z,9.28
2019-03-05T12:44:44.444Z,9.17
2019-03-05T12:45:44.429Z,9.13
2019-03-05T12:46:44.437Z,9.01
2019-03-05T12:47:44.407Z,9.04
2019-03-05T12:48:44.398Z,9.10
2019-03-05T12:49:44.388Z,8.96
2019-03-05T12:50:44.376Z,8.99
2019-03-05T12:51:44.383Z,8.79
2019-03-05T12:52:44.349Z,8.80
2019-03-05T12:53:44.336Z,8.92
2019-03-05T12:54:44.330Z,9.21
2019-03-05T12:55:44.318Z,9.11
2019-03-05T12:56:44.322Z,9.84
2019-03-05T12:57:44.304Z,11.07
2019-03-05T12:58:44.280Z,12.04
2019-03-05T12:59:44.270Z,12.64
2019-03-05T13:00:44.266Z,13.17
2019-03-05T13:01:44.279Z,13.75
2019-03-05T13:02:44.246Z,14.15
2019-03-05T13:03:44.226Z,14.80
2019-03-05T13:04:44.278Z,15.43
2019-03-05T13:05:44.207Z,14.09
2019-03-05T13:06:44.211Z,12.45
2019-03-05T13:07:44.180Z,11.78
2019-03-05T13:08:44.181Z,11.33
2019-03-05T13:09:45.489Z,13.04
2019-03-05T13:10:45.283Z,13.41
2019-03-05T13:11:46.628Z,14.09
2019-03-05T13:12:45.129Z,13.89
2019-03-05T13:13:47.642Z,13.32
2019-03-05T13:14:45.101Z,12.64
2019-03-05T13:15:44.092Z,12.02
2019-03-05T13:16:44.104Z,11.55